createdAt,value
2018-12-22T00:01:43.560Z,13.43
2018-12-22T00:04:17.176Z,21.55
2018-12-22T00:06:57.982Z,14.98
2018-12-22T00:09:28.317Z,20.37
2018-12-22T00:12:02.020Z,19.90
2018-12-22T00:14:33.305Z,13.03
2018-12-22T00:17:13.725Z,13.65
2018-12-22T00:19:47.863Z,15.68
2018-12-22T00:22:28.602Z,20.25
2018-12-22T00:25:05.669Z,16.57
2018-12-22T00:27:46.314Z,25.23
2018-12-22T00:30:17.484Z,14.68
2018-12-22T00:32:57.825Z,23.52
2018-12-22T00:35:37.985Z,16.02
2018-12-22T00:38:08.425Z,21.75
2018-12-22T00:40:48.857Z,22.60
2018-12-22T00:43:28.856Z,14.78
2018-12-22T00:45:59.344Z,15.83
2018-12-22T00:48:30.470Z,18.98
2018-12-22T00:50:59.521Z,17.42
2018-12-22T00:53:30.592Z,20.45
2018-12-22T00:56:04.459Z,16.02
2018-12-22T00:58:35.476Z,18.02
2018-12-22T01:01:09.153Z,12.15
2018-12-22T01:03:42.957Z,12.55
2018-12-22T01:06:14.113Z,11.35
2018-12-22T01:08:54.453Z,14.25
2018-12-22T01:11:34.332Z,12.70
2018-12-22T01:14:15.093Z,18.77
2018-12-22T01:16:55.074Z,13.00
2018-12-22T01:19:26.276Z,18.40
2018-12-22T01:22:06.791Z,18.32
2018-12-22T01:24:46.750Z,15.08
2018-12-22T01:27:26.769Z,15.40
2018-12-22T01:29:57.119Z,12.13
2018-12-22T01:32:37.661Z,18.80
2018-12-22T01:35:18.361Z,17.57
2018-12-22T01:37:51.554Z,11.33
2018-12-22T01:40:20.435Z,20.82
2018-12-22T01:42:51.271Z,14.13
2018-12-22T01:45:22.240Z,18.10
2018-12-22T01:48:02.418Z,22.58
2018-12-22T01:50:42.313Z,17.40
2018-12-22T01:53:10.856Z,17.98
2018-12-22T01:55:51.261Z,12.30
2018-12-22T01:58:21.629Z,15.75
2018-12-22T02:01:02.193Z,10.78
2018-12-22T02:03:35.545Z,13.13
2018-12-22T02:06:15.985Z,25.00
2018-12-22T02:08:49.108Z,21.55
2018-12-22T02:11:29.791Z,16.32
2018-12-22T02:14:00.224Z,16.55
2018-12-22T02:16:34.086Z,17.95
2018-12-22T02:19:07.790Z,22.07
2018-12-22T02:21:48.176Z,12.73
2018-12-22T02:24:28.206Z,14.50
2018-12-22T02:27:08.139Z,19.35
2018-12-22T02:29:39.855Z,14.73
2018-12-22T02:32:11.056Z,16.23
2018-12-22T02:34:51.502Z,13.45
2018-12-22T02:37:21.982Z,14.80
2018-12-22T02:39:52.942Z,21.45
2018-12-22T02:42:26.664Z,17.70
2018-12-22T02:44:55.812Z,20.17
2018-12-22T02:47:29.329Z,13.10
2018-12-22T02:50:00.496Z,15.25
2018-12-22T02:52:33.999Z,17.42
2018-12-22T02:55:14.673Z,23.62
2018-12-22T02:57:47.922Z,15.32
2018-12-22T03:00:16.945Z,22.80
2018-12-22T03:02:57.477Z,15.65
2018-12-22T03:05:30.605Z,16.55
2018-12-22T03:07:59.758Z,15.32
2018-12-22T03:10:28.733Z,19.15
2018-12-22T03:13:02.498Z,19.73
2018-12-22T03:15:33.674Z,10.98
2018-12-22T03:18:13.918Z,13.45
2018-12-22T03:20:53.684Z,16.95
2018-12-22T03:23:24.279Z,15.63
2018-12-22T03:25:54.841Z,25.02
2018-12-22T03:28:25.795Z,17.67
2018-12-22T03:31:06.331Z,13.70
2018-12-22T03:36:36.314Z,9.28
2018-12-22T03:39:07.537Z,28.57
2018-12-22T03:41:41.161Z,14.18
2018-12-22T03:44:12.279Z,10.48
2018-12-22T03:46:52.581Z,14.58
2018-12-22T03:49:25.796Z,12.80
2018-12-22T03:52:06.460Z,18.62
2018-12-22T03:54:47.234Z,12.58
2018-12-22T03:57:21.367Z,17.02
2018-12-22T03:59:55.173Z,18.42
2018-12-22T04:02:29.073Z,21.87
2018-12-22T04:05:06.870Z,17.12
2018-12-22T04:07:47.394Z,16.35
2018-12-22T04:10:20.631Z,7.72
2018-12-22T04:12:54.416Z,15.58
2018-12-22T04:15:28.466Z,11.97
2018-12-22T04:18:08.850Z,20.82
2018-12-22T04:20:48.629Z,16.07
2018-12-22T04:23:17.897Z,14.65
2018-12-22T04:25:48.826Z,19.10
2018-12-22T04:28:23.947Z,15.75
2018-12-22T04:30:55.108Z,19.75
2018-12-22T04:33:32.721Z,24.60
2018-12-22T04:36:03.583Z,15.15
2018-12-22T04:38:32.297Z,18.23
2018-12-22T04:41:06.313Z,15.13
2018-12-22T04:43:37.267Z,8.75
2018-12-22T04:46:14.624Z,13.03
2018-12-22T04:48:45.742Z,11.40
2018-12-22T04:51:14.766Z,10.80
2018-12-22T04:53:45.650Z,14.28
2018-12-22T04:56:16.552Z,7.55
2018-12-22T04:58:47.335Z,9.78
2018-12-22T05:01:20.871Z,4.87
2018-12-22T05:03:52.109Z,4.12
2018-12-22T05:06:23.316Z,3.85
2018-12-22T05:11:49.286Z,7.37
2018-12-22T05:14:20.399Z,5.85
2018-12-22T05:16:51.530Z,5.67
2018-12-22T05:19:21.508Z,5.75
2018-12-22T05:21:50.384Z,2.90
2018-12-22T05:24:19.639Z,6.08
2018-12-22T05:26:50.470Z,14.20
2018-12-22T05:29:21.442Z,7.53
2018-12-22T05:31:52.496Z,7.90
2018-12-22T05:34:23.249Z,3.90
2018-12-22T05:36:52.175Z,5.62
2018-12-22T05:39:21.157Z,2.27
2018-12-22T05:41:54.701Z,2.08
2018-12-22T05:44:25.932Z,5.53
2018-12-22T05:47:00.577Z,8.73
2018-12-22T05:49:31.499Z,5.67
2018-12-22T05:52:05.019Z,4.10
2018-12-22T05:54:33.641Z,4.22
2018-12-22T05:57:07.288Z,4.17
2018-12-22T05:59:38.403Z,5.97
2018-12-22T06:02:12.235Z,2.70
2018-12-22T06:04:41.191Z,3.37
2018-12-22T06:07:15.172Z,6.97
2018-12-22T06:09:44.344Z,1.70
2018-12-22T06:12:18.117Z,5.55
2018-12-22T06:14:52.214Z,6.00
2018-12-22T06:17:21.471Z,5.33
2018-12-22T06:19:50.641Z,4.15
2018-12-22T06:22:20.634Z,3.90
2018-12-22T06:24:54.334Z,8.10
2018-12-22T06:27:25.231Z,5.60
2018-12-22T06:29:56.283Z,5.75
2018-12-22T06:32:31.408Z,3.55
2018-12-22T06:35:02.260Z,4.08
2018-12-22T06:37:33.319Z,7.03
2018-12-22T06:40:07.007Z,6.65
2018-12-22T06:42:41.396Z,3.35
2018-12-22T06:45:15.381Z,8.45
2018-12-22T06:47:46.171Z,4.55
2018-12-22T06:50:19.839Z,11.12
2018-12-22T06:52:50.961Z,2.27
2018-12-22T06:55:22.153Z,8.68
2018-12-22T06:57:52.816Z,6.78
2018-12-22T07:00:23.978Z,5.37
2018-12-22T07:02:54.934Z,8.55
2018-12-22T07:05:35.525Z,8.10
2018-12-22T07:08:06.056Z,8.38
2018-12-22T07:10:47.713Z,2.55
2018-12-22T07:13:18.717Z,4.00
2018-12-22T07:15:52.404Z,2.42
2018-12-22T07:18:26.039Z,7.42
2018-12-22T07:20:56.396Z,5.45
2018-12-22T07:23:30.117Z,3.92
2018-12-22T07:26:11.319Z,4.58
2018-12-22T07:28:51.261Z,8.53
2018-12-22T07:31:25.172Z,3.47
2018-12-22T07:34:12.051Z,3.80
2018-12-22T07:36:42.947Z,2.35
2018-12-22T07:39:20.009Z,2.27
2018-12-22T07:44:59.661Z,1.10
2018-12-22T07:47:33.657Z,7.05
2018-12-22T07:50:07.517Z,2.35
2018-12-22T07:52:52.001Z,3.08
2018-12-22T07:55:30.972Z,2.40
2018-12-22T08:01:00.458Z,2.05
2018-12-22T08:03:29.727Z,1.90
2018-12-22T08:06:13.806Z,3.10
2018-12-22T08:08:43.073Z,1.95
2018-12-22T08:14:06.544Z,3.17
2018-12-22T08:19:45.537Z,9.48
2018-12-22T08:25:12.990Z,9.30
2018-12-22T08:30:43.442Z,6.58
2018-12-22T08:33:14.339Z,4.67
2018-12-22T08:35:41.862Z,2.92
2018-12-22T08:38:15.852Z,5.40
2018-12-22T08:43:44.805Z,6.20
2018-12-22T08:46:18.022Z,2.10
2018-12-22T08:48:52.207Z,6.55
2018-12-22T08:51:22.915Z,5.67
2018-12-22T08:56:48.056Z,7.05
2018-12-22T09:05:10.455Z,6.12
2018-12-22T09:07:41.406Z,2.80
2018-12-22T09:10:12.533Z,5.58
2018-12-22T09:12:50.232Z,4.00
2018-12-22T09:15:19.331Z,3.37
2018-12-22T09:17:53.856Z,3.83
2018-12-22T09:26:19.705Z,6.25
2018-12-22T09:34:44.221Z,7.15
2018-12-22T09:37:15.572Z,3.35
2018-12-22T09:39:51.018Z,7.37
2018-12-22T09:42:24.771Z,9.90
2018-12-22T09:44:55.597Z,6.42
2018-12-22T09:47:27.544Z,3.15
2018-12-22T09:49:58.362Z,4.22
2018-12-22T09:52:31.949Z,8.00
2018-12-22T09:55:02.313Z,9.18
2018-12-22T09:57:33.155Z,5.78
2018-12-22T10:00:11.417Z,4.90
2018-12-22T10:02:40.530Z,7.80
2018-12-22T10:05:15.983Z,3.35
2018-12-22T10:10:45.294Z,9.60
2018-12-22T10:13:14.310Z,6.53
2018-12-22T10:21:41.236Z,8.05
2018-12-22T10:24:14.798Z,7.53
2018-12-22T10:26:49.380Z,11.78
2018-12-22T10:29:18.673Z,8.65
2018-12-22T10:34:47.896Z,8.75
2018-12-22T10:43:14.995Z,9.15
2018-12-22T10:48:47.302Z,5.95
2018-12-22T10:51:24.354Z,8.00
2018-12-22T10:53:53.340Z,7.28
2018-12-22T10:56:24.153Z,11.25
2018-12-22T10:58:55.255Z,15.83
2018-12-22T11:01:26.621Z,8.55
2018-12-22T11:03:59.802Z,7.72
2018-12-22T11:06:33.622Z,5.70
2018-12-22T11:09:09.810Z,12.45
2018-12-22T11:11:40.636Z,13.30
2018-12-22T11:14:13.707Z,9.88
2018-12-22T11:16:54.089Z,8.38
2018-12-22T11:19:25.464Z,11.48
2018-12-22T11:21:56.361Z,10.93
2018-12-22T11:24:27.276Z,7.50
2018-12-22T11:26:58.237Z,9.33
2018-12-22T11:29:29.125Z,12.00
2018-12-22T11:32:02.807Z,12.07
2018-12-22T11:34:36.457Z,20.00
2018-12-22T11:37:17.003Z,7.22
2018-12-22T11:39:47.344Z,7.03
2018-12-22T11:42:16.202Z,11.18
2018-12-22T11:44:47.133Z,4.97
2018-12-22T11:47:19.149Z,12.40
2018-12-22T11:49:52.880Z,14.90
2018-12-22T11:52:26.635Z,14.98
2018-12-22T11:54:57.875Z,7.92
2018-12-22T11:57:26.794Z,17.92
2018-12-22T11:59:57.775Z,10.13
2018-12-22T12:02:40.135Z,8.85
2018-12-22T12:05:18.125Z,10.13
2018-12-22T12:07:58.664Z,9.53
2018-12-22T12:10:29.179Z,26.50
2018-12-22T12:12:58.021Z,6.65
2018-12-22T12:15:33.767Z,9.53
2018-12-22T12:18:10.420Z,9.98
2018-12-22T12:20:44.432Z,5.42
2018-12-22T12:23:18.303Z,6.10
2018-12-22T12:25:47.550Z,7.28
2018-12-22T12:28:21.109Z,11.22
2018-12-22T12:30:52.224Z,8.43
2018-12-22T12:33:23.291Z,3.40
2018-12-22T12:35:56.897Z,12.03
2018-12-22T12:38:25.951Z,8.28
2018-12-22T12:40:57.126Z,3.17
2018-12-22T12:43:25.876Z,6.67
2018-12-22T12:45:56.621Z,8.20
2018-12-22T12:48:36.846Z,6.47
2018-12-22T12:51:09.962Z,12.58
2018-12-22T12:53:43.694Z,8.53
2018-12-22T12:56:14.808Z,8.00
2018-12-22T12:58:45.568Z,8.85
2018-12-22T13:01:14.626Z,9.18
2018-12-22T13:03:45.644Z,4.42
2018-12-22T13:06:25.974Z,6.42
2018-12-22T13:08:57.209Z,5.62
2018-12-22T13:11:31.073Z,8.03
2018-12-22T13:14:11.532Z,3.85
2018-12-22T13:16:51.442Z,4.42
2018-12-22T13:19:22.856Z,4.80
2018-12-22T13:22:02.931Z,4.62
2018-12-22T13:24:33.647Z,3.30
2018-12-22T13:27:07.196Z,6.97
2018-12-22T13:29:38.166Z,8.58
2018-12-22T13:32:09.753Z,9.60
2018-12-22T13:34:45.052Z,2.47
2018-12-22T13:37:25.814Z,6.70
2018-12-22T13:39:56.161Z,8.73
2018-12-22T13:42:29.771Z,6.50
2018-12-22T13:45:05.172Z,4.80
2018-12-22T13:47:45.267Z,5.83
2018-12-22T13:50:16.080Z,3.60
2018-12-22T13:52:47.537Z,6.42
2018-12-22T13:55:20.889Z,8.90
2018-12-22T13:58:01.470Z,7.42
2018-12-22T14:00:34.853Z,5.00
2018-12-22T14:03:21.336Z,5.17
2018-12-22T14:05:48.917Z,4.67
2018-12-22T14:08:16.730Z,9.88
2018-12-22T14:10:50.144Z,7.75
2018-12-22T14:13:30.666Z,4.53
2018-12-22T14:16:10.588Z,5.10
2018-12-22T14:18:42.074Z,6.28
2018-12-22T14:21:12.772Z,10.30
2018-12-22T14:23:53.238Z,7.08
2018-12-22T14:26:23.690Z,9.33
2018-12-22T14:29:01.361Z,7.47
2018-12-22T14:31:41.721Z,5.53
2018-12-22T14:34:16.723Z,9.85
2018-12-22T14:36:47.197Z,11.25
2018-12-22T14:39:18.186Z,6.25
2018-12-22T14:41:47.053Z,4.60
2018-12-22T14:44:29.441Z,11.73
2018-12-22T14:47:04.042Z,7.17
2018-12-22T14:49:37.866Z,3.87
2018-12-22T14:52:10.961Z,8.38
2018-12-22T14:54:51.485Z,7.05
2018-12-22T14:57:19.903Z,4.95
2018-12-22T14:59:50.736Z,8.35
2018-12-22T15:02:21.701Z,12.70
2018-12-22T15:05:01.985Z,16.48
2018-12-22T15:07:36.085Z,10.13
2018-12-22T15:10:09.404Z,16.17
2018-12-22T15:12:43.225Z,6.20
2018-12-22T15:15:12.444Z,7.72
2018-12-22T15:17:43.833Z,4.97
2018-12-22T15:20:24.888Z,5.95
2018-12-22T15:23:04.812Z,9.48
2018-12-22T15:25:37.950Z,5.83
2018-12-22T15:28:06.917Z,4.25
2018-12-22T15:30:37.915Z,9.98
2018-12-22T15:33:18.461Z,11.70
2018-12-22T15:35:59.033Z,7.08
2018-12-22T15:38:32.141Z,12.70
2018-12-22T15:41:13.829Z,7.50
2018-12-22T15:43:47.306Z,8.28
2018-12-22T15:46:27.837Z,7.33
2018-12-22T15:48:58.346Z,6.15
2018-12-22T15:51:38.658Z,7.70
2018-12-22T15:54:19.557Z,6.80
2018-12-22T15:57:00.349Z,8.18
2018-12-22T15:59:31.669Z,12.35
2018-12-22T16:02:02.706Z,8.88
2018-12-22T16:04:43.225Z,10.03
2018-12-22T16:07:24.885Z,10.43
2018-12-22T16:09:55.341Z,8.80
2018-12-22T16:12:35.782Z,7.58
2018-12-22T16:15:15.668Z,9.53
2018-12-22T16:17:56.376Z,11.22
2018-12-22T16:20:36.165Z,5.95
2018-12-22T16:23:06.645Z,11.08
2018-12-22T16:25:44.256Z,10.88
2018-12-22T16:28:24.878Z,17.12
2018-12-22T16:30:58.088Z,11.03
2018-12-22T16:33:29.274Z,12.45
2018-12-22T16:36:00.237Z,18.02
2018-12-22T16:38:29.191Z,10.98
2018-12-22T16:41:02.810Z,8.78
2018-12-22T16:43:31.674Z,8.40
2018-12-22T16:46:00.940Z,6.05
2018-12-22T16:48:31.848Z,9.00
2018-12-22T16:51:05.565Z,9.98
2018-12-22T16:53:46.117Z,12.07
2018-12-22T16:56:19.233Z,15.38
2018-12-22T16:58:53.746Z,9.93
2018-12-22T17:01:33.645Z,10.08
2018-12-22T17:04:06.969Z,13.43
2018-12-22T17:06:47.345Z,13.05
2018-12-22T17:09:17.894Z,6.03
2018-12-22T17:11:48.777Z,12.70
2018-12-22T17:14:29.006Z,12.90
2018-12-22T17:17:08.921Z,6.97
2018-12-22T17:19:39.501Z,8.95
2018-12-22T17:22:19.602Z,8.95
2018-12-22T17:24:48.896Z,6.65
2018-12-22T17:27:20.020Z,7.37
2018-12-22T17:29:51.027Z,10.90
2018-12-22T17:32:34.354Z,11.40
2018-12-22T17:35:08.621Z,9.70
2018-12-22T17:37:48.957Z,10.08
2018-12-22T17:40:22.194Z,6.25
2018-12-22T17:42:56.002Z,9.93
2018-12-22T17:45:26.377Z,25.85
2018-12-22T17:47:59.338Z,19.60
2018-12-22T17:50:30.172Z,22.17
2018-12-22T17:53:01.065Z,24.67
2018-12-22T17:55:41.510Z,26.37
2018-12-22T17:58:21.380Z,28.27
2018-12-22T18:01:02.149Z,22.20
2018-12-22T18:03:35.341Z,27.32
2018-12-22T18:06:09.089Z,26.40
2018-12-22T18:09:02.355Z,19.00
2018-12-22T18:11:31.094Z,25.70
2018-12-22T18:14:02.124Z,26.75
2018-12-22T18:16:45.444Z,25.57
2018-12-22T18:19:25.403Z,22.52
2018-12-22T18:21:59.398Z,21.45
2018-12-22T18:24:28.453Z,25.15
2018-12-22T18:26:57.480Z,23.45
2018-12-22T18:29:26.475Z,32.35
2018-12-22T18:31:55.060Z,17.62
2018-12-22T18:34:26.013Z,22.00
2018-12-22T18:37:01.662Z,14.47
2018-12-22T18:39:32.931Z,14.47
2018-12-22T18:42:01.720Z,17.37
2018-12-22T18:44:32.436Z,15.15
2018-12-22T18:47:03.544Z,16.57
2018-12-22T18:49:34.611Z,18.02
2018-12-22T18:52:03.403Z,17.70
2018-12-22T18:54:34.153Z,17.82
2018-12-22T18:57:07.871Z,16.85
2018-12-22T18:59:41.900Z,12.23
2018-12-22T19:02:12.287Z,14.73
2018-12-22T19:04:43.058Z,10.88
2018-12-22T19:07:17.093Z,16.73
2018-12-22T19:09:51.176Z,15.20
2018-12-22T19:12:25.017Z,13.78
2018-12-22T19:14:55.444Z,16.40
2018-12-22T19:17:33.215Z,10.45
2018-12-22T19:20:03.645Z,24.37
2018-12-22T19:22:34.548Z,12.82
2018-12-22T19:25:08.406Z,20.05
2018-12-22T19:27:39.554Z,21.35
2018-12-22T19:30:10.726Z,14.53
2018-12-22T19:32:41.563Z,14.68
2018-12-22T19:35:12.529Z,13.30
2018-12-22T19:37:41.411Z,18.25
2018-12-22T19:40:12.250Z,14.65
2018-12-22T19:42:43.089Z,17.07
2018-12-22T19:45:14.092Z,10.60
2018-12-22T19:47:45.036Z,16.48
2018-12-22T19:50:14.123Z,14.70
2018-12-22T19:52:45.383Z,22.70
2018-12-22T19:55:16.049Z,19.92
2018-12-22T19:57:47.214Z,19.00
2018-12-22T20:00:17.922Z,17.90
2018-12-22T20:02:51.753Z,13.88
2018-12-22T20:05:22.944Z,16.25
2018-12-22T20:07:53.677Z,12.88
2018-12-22T20:10:24.600Z,17.70
2018-12-22T20:12:55.367Z,16.27
2018-12-22T20:15:26.547Z,23.77
2018-12-22T20:18:00.184Z,10.72
2018-12-22T20:20:34.084Z,15.63
2018-12-22T20:23:08.034Z,12.58
2018-12-22T20:25:38.555Z,12.73
2018-12-22T20:28:09.611Z,7.62
2018-12-22T20:30:40.519Z,18.90
2018-12-22T20:33:11.366Z,14.10
2018-12-22T20:35:42.546Z,16.17
2018-12-22T20:38:11.604Z,20.40
2018-12-22T20:40:40.760Z,15.38
2018-12-22T20:43:11.706Z,19.92
2018-12-22T20:45:45.427Z,12.37
2018-12-22T20:48:16.531Z,22.32
2018-12-22T20:50:47.196Z,17.50
2018-12-22T20:53:23.034Z,17.12
2018-12-22T20:55:54.333Z,21.37
2018-12-22T20:58:23.137Z,12.23
2018-12-22T21:00:54.664Z,10.13
2018-12-22T21:03:40.355Z,12.70
2018-12-22T21:06:15.379Z,15.98
2018-12-22T21:08:49.027Z,9.53
2018-12-22T21:11:20.396Z,14.43
2018-12-22T21:13:51.568Z,13.88
2018-12-22T21:16:20.525Z,14.33
2018-12-22T21:18:51.533Z,12.63
2018-12-22T21:21:25.272Z,11.83
2018-12-22T21:23:54.465Z,4.20
2018-12-22T21:26:25.417Z,13.08
2018-12-22T21:28:56.215Z,13.03
2018-12-22T21:31:27.165Z,20.15
2018-12-22T21:33:56.066Z,13.78
2018-12-22T21:36:29.615Z,16.67
2018-12-22T21:38:58.875Z,14.13
2018-12-22T21:41:29.835Z,8.13
2018-12-22T21:43:58.671Z,12.98
2018-12-22T21:46:32.706Z,12.82
2018-12-22T21:49:01.637Z,11.22
2018-12-22T21:51:32.692Z,7.50
2018-12-22T21:54:03.846Z,13.62
2018-12-22T21:56:32.591Z,15.43
2018-12-22T21:59:06.162Z,9.73
2018-12-22T22:01:39.992Z,10.48
2018-12-22T22:04:08.864Z,13.40
2018-12-22T22:06:42.739Z,18.45
2018-12-22T22:09:13.896Z,8.28
2018-12-22T22:11:44.743Z,6.03
2018-12-22T22:14:15.615Z,10.28
2018-12-22T22:16:46.616Z,17.30
2018-12-22T22:19:17.319Z,15.78
2018-12-22T22:21:49.641Z,12.28
2018-12-22T22:24:20.804Z,15.50
2018-12-22T22:26:51.856Z,14.80
2018-12-22T22:29:20.949Z,13.32
2018-12-22T22:31:52.119Z,22.05
2018-12-22T22:34:21.107Z,17.12
2018-12-22T22:36:51.897Z,12.23
2018-12-22T22:39:23.082Z,14.87
2018-12-22T22:41:54.204Z,11.80
2018-12-22T22:44:23.143Z,13.75
2018-12-22T22:46:57.195Z,10.32
2018-12-22T22:49:28.363Z,12.93
2018-12-22T22:51:59.216Z,7.55
2018-12-22T22:54:28.262Z,16.80
2018-12-22T22:56:59.461Z,11.38
2018-12-22T22:59:28.090Z,15.53
2018-12-22T23:02:01.831Z,13.95
2018-12-22T23:04:30.978Z,11.55
2018-12-22T23:07:02.146Z,12.95
2018-12-22T23:09:31.243Z,10.32
2018-12-22T23:12:02.314Z,13.22
2018-12-22T23:14:33.518Z,12.07
2018-12-22T23:17:02.431Z,7.45
2018-12-22T23:19:35.074Z,11.12
2018-12-22T23:22:05.542Z,10.03
2018-12-22T23:24:36.633Z,14.83
2018-12-22T23:27:07.493Z,10.00
2018-12-22T23:29:36.379Z,13.58
2018-12-22T23:32:07.314Z,13.83
2018-12-22T23:34:38.480Z,16.80
2018-12-22T23:37:09.904Z,3.47
2018-12-22T23:39:38.477Z,21.42
2018-12-22T23:42:09.263Z,14.45
2018-12-22T23:44:38.398Z,17.37
2018-12-22T23:47:09.407Z,15.50
2018-12-22T23:49:38.273Z,15.65
2018-12-22T23:52:07.267Z,12.00
2018-12-22T23:54:38.239Z,19.67
2018-12-22T23:57:09.248Z,15.13
2018-12-22T23:59:38.197Z,12.50
